Terminal Aerodrome Forecast
Issued by NWS

Home | Current Version | Previous Version | Text Only | Print | Product List | Glossary On
Versions: 1 2 3 4 5 6 7 8 9 10 11 12 13 14 15 16 17 18
000
FTUS42 KTAE 240704 AAA
TAFABY
TAF AMD
KABY 240704Z 2407/2506 20006KT P6SM SCT025 BKN050
      TEMPO 2407/2409 4SM -RA BR BKN015
     FM240900 22007KT 4SM BR BKN009
     FM241200 23010KT 5SM TSRA SCT010CB BKN025
     FM241600 24015G25KT P6SM BKN030
     FM250000 25010KT P6SM FEW250=

USA.gov is the U.S. government's official web portal to all federal, state and local government web resources and services.